Time;durP1;ratioP1;P1;durP2;ratioP2;P2;SDS_P1;SDS_P2;PMS_P1;PMS_P2;Temp;Humidity;BMP_temperature;BMP_pressure;BME280_temperature;BME280_humidity;BME280_pressure;Samples;Min_cycle;Max_cycle;Signal;HPM_P1;HPM_P2
2022/08/23 00:00:41;;;;;;;1.70;0.90;;;;;;;;;;7334028;19;162613;-14
2022/08/23 00:03:12;;;;;;;1.58;1.02;;;;;;;;;;7334480;19;154058;-15
2022/08/23 00:05:43;;;;;;;1.08;1.02;;;;;;;;;;7333073;19;153831;-16
2022/08/23 00:08:20;;;;;;;1.48;1.00;;;;;;;;;;7332995;19;161822;-15
2022/08/23 00:10:51;;;;;;;0.82;0.82;;;;;;;;;;7337985;19;162440;-15
2022/08/23 00:13:23;;;;;;;1.92;1.00;;;;;;;;;;7333899;19;154298;-16
2022/08/23 00:15:54;;;;;;;1.47;1.03;;;;;;;;;;7334064;19;153547;-16
2022/08/23 00:18:26;;;;;;;1.10;1.00;;;;;;;;;;7333536;19;162175;-16
2022/08/23 00:20:57;;;;;;;1.48;0.95;;;;;;;;;;7333325;19;162399;-15
2022/08/23 00:23:31;;;;;;;0.70;0.70;;;;;;;;;;7332643;19;154053;-16
2022/08/23 00:26:05;;;;;;;0.80;0.80;;;;;;;;;;7333823;19;153321;-16
2022/08/23 00:28:40;;;;;;;1.70;0.90;;;;;;;;;;7332351;19;161922;-17
2022/08/23 00:31:11;;;;;;;1.30;0.80;;;;;;;;;;7333043;19;162138;-15
2022/08/23 00:33:43;;;;;;;2.10;1.10;;;;;;;;;;7332351;19;154191;-15
2022/08/23 00:36:14;;;;;;;1.75;0.80;;;;;;;;;;7333280;19;153529;-15
2022/08/23 00:38:47;;;;;;;0.80;0.80;;;;;;;;;;7332055;19;162094;-15
2022/08/23 00:41:19;;;;;;;2.20;0.90;;;;;;;;;;7332851;19;162668;-15
2022/08/23 00:49:27;;;;;;;;;;;;;;;;;;7331718;19;161944;-16
2022/08/23 00:52:02;;;;;;;0.98;0.82;;;;;;;;;;7332574;19;162619;-16
2022/08/23 00:54:41;;;;;;;1.60;1.00;;;;;;;;;;7330685;19;154030;-16
2022/08/23 00:57:18;;;;;;;1.08;0.82;;;;;;;;;;7332949;19;153623;-16
2022/08/23 00:59:49;;;;;;;1.05;0.90;;;;;;;;;;7332467;19;162002;-16
2022/08/23 01:02:21;;;;;;;1.65;0.80;;;;;;;;;;7331119;19;162504;-16
2022/08/23 01:04:59;;;;;;;0.93;0.93;;;;;;;;;;7331536;19;154320;-16
2022/08/23 01:07:38;;;;;;;1.77;0.88;;;;;;;;;;7332635;19;153621;-16
2022/08/23 01:10:17;;;;;;;1.08;0.98;;;;;;;;;;7331850;19;161934;-17
2022/08/23 01:12:55;;;;;;;5.43;1.25;;;;;;;;;;7332227;19;162367;-16
2022/08/23 01:15:34;;;;;;;3.05;0.85;;;;;;;;;;7331392;19;154011;-16
2022/08/23 01:18:09;;;;;;;1.17;0.80;;;;;;;;;;7332334;19;153738;-16
2022/08/23 01:20:45;;;;;;;1.10;1.00;;;;;;;;;;7331859;19;161946;-15
2022/08/23 01:23:31;;;;;;;2.60;1.00;;;;;;;;;;7330538;19;162402;-23
2022/08/23 01:26:03;;;;;;;2.25;0.90;;;;;;;;;;7330793;19;154155;-16
2022/08/23 01:28:35;;;;;;;1.60;1.00;;;;;;;;;;7332806;19;153622;-16
2022/08/23 01:31:06;;;;;;;2.57;1.00;;;;;;;;;;7331443;19;162080;-16
2022/08/23 01:33:39;;;;;;;0.77;0.77;;;;;;;;;;7330039;19;162575;-16
2022/08/23 01:36:12;;;;;;;;;;;;;;;;;;7330502;19;154102;-16
2022/08/23 01:38:46;;;;;;;2.15;0.85;;;;;;;;;;7330923;19;153355;-16
2022/08/23 01:41:18;;;;;;;1.33;0.85;;;;;;;;;;7331256;19;161851;-15
2022/08/23 01:43:50;;;;;;;2.00;0.98;;;;;;;;;;7331023;19;163018;-15
2022/08/23 01:46:24;;;;;;;1.45;0.88;;;;;;;;;;7330307;19;154064;-16
2022/08/23 01:48:57;;;;;;;0.95;0.80;;;;;;;;;;7329662;19;154194;-15
2022/08/23 01:51:32;;;;;;;1.02;0.93;;;;;;;;;;7329896;19;161893;-16
2022/08/23 01:54:07;;;;;;;0.93;0.80;;;;;;;;;;7327841;19;162406;-15
2022/08/23 01:56:39;;;;;;;4.80;1.17;;;;;;;;;;7330130;19;154302;-16
2022/08/23 01:59:13;;;;;;;1.55;0.80;;;;;;;;;;7330052;19;153754;-15
2022/08/23 02:01:51;;;;;;;1.42;0.88;;;;;;;;;;7329602;19;161778;-15
2022/08/23 02:04:23;;;;;;;1.77;0.97;;;;;;;;;;7330751;19;162529;-15
2022/08/23 02:06:56;;;;;;;3.08;1.17;;;;;;;;;;7329865;19;154202;-16
2022/08/23 02:09:30;;;;;;;1.55;0.90;;;;;;;;;;7330655;19;153522;-16
2022/08/23 02:12:04;;;;;;;3.50;1.25;;;;;;;;;;7329372;19;162238;-16
2022/08/23 02:14:36;;;;;;;0.80;0.80;;;;;;;;;;7329140;19;162413;-16
2022/08/23 02:17:07;;;;;;;2.20;0.80;;;;;;;;;;7329461;19;154198;-15
2022/08/23 02:19:40;;;;;;;1.60;1.20;;;;;;;;;;7330505;19;153799;-15
2022/08/23 02:22:13;;;;;;;1.20;1.10;;;;;;;;;;7329046;19;161871;-15
2022/08/23 02:24:48;;;;;;;1.42;0.90;;;;;;;;;;7330020;19;162487;-15
2022/08/23 02:27:20;;;;;;;5.47;1.20;;;;;;;;;;7329076;19;154127;-16
2022/08/23 02:29:52;;;;;;;3.60;1.05;;;;;;;;;;7327995;19;153588;-16
2022/08/23 02:32:24;;;;;;;1.17;0.90;;;;;;;;;;7329859;19;162182;-15
2022/08/23 02:34:56;;;;;;;1.17;1.00;;;;;;;;;;7329690;19;162359;-16
2022/08/23 02:37:27;;;;;;;0.80;0.80;;;;;;;;;;7330090;19;153980;-15
2022/08/23 02:40:01;;;;;;;1.08;0.95;;;;;;;;;;7331437;19;153868;-15
2022/08/23 02:42:33;;;;;;;2.45;1.00;;;;;;;;;;7328327;19;161816;-15
2022/08/23 02:45:07;;;;;;;1.52;1.00;;;;;;;;;;7328224;19;162551;-15
2022/08/23 02:47:44;;;;;;;1.15;1.00;;;;;;;;;;7326452;19;154191;-15
2022/08/23 02:50:38;;;;;;;1.02;0.85;;;;;;;;;;7326711;19;153496;-16
2022/08/23 02:53:09;;;;;;;0.93;0.80;;;;;;;;;;7328382;19;162008;-17
2022/08/23 02:55:46;;;;;;;2.60;0.75;;;;;;;;;;7328025;19;162637;-16
2022/08/23 02:58:17;;;;;;;3.40;1.02;;;;;;;;;;7329561;19;154033;-15
2022/08/23 03:00:49;;;;;;;1.60;0.85;;;;;;;;;;7329115;19;153607;-16
2022/08/23 03:03:23;;;;;;;1.30;1.20;;;;;;;;;;7327575;19;161881;-16
2022/08/23 03:05:54;;;;;;;0.70;0.70;;;;;;;;;;7328743;19;162500;-16
2022/08/23 03:08:26;;;;;;;1.00;1.00;;;;;;;;;;7327971;19;154098;-15
2022/08/23 03:11:00;;;;;;;1.52;0.93;;;;;;;;;;7330845;19;153606;-16
2022/08/23 03:13:32;;;;;;;1.00;0.90;;;;;;;;;;7327497;19;162281;-15
2022/08/23 03:16:03;;;;;;;2.33;0.65;;;;;;;;;;7327153;19;162403;-16
2022/08/23 03:18:35;;;;;;;0.80;0.57;;;;;;;;;;7327576;19;154470;-15
2022/08/23 03:21:08;;;;;;;0.93;0.80;;;;;;;;;;7327421;19;153554;-15
2022/08/23 03:23:41;;;;;;;1.58;1.10;;;;;;;;;;7329265;19;161784;-15
2022/08/23 03:26:15;;;;;;;;;;;;;;;;;;7328406;19;162540;-15
2022/08/23 03:28:47;;;;;;;0.85;0.70;;;;;;;;;;7330786;19;154518;-15
2022/08/23 03:31:19;;;;;;;2.33;1.30;;;;;;;;;;7325656;19;153588;-14
2022/08/23 03:34:02;;;;;;;1.08;0.80;;;;;;;;;;7327023;19;162060;-15
2022/08/23 03:36:36;;;;;;;1.25;1.15;;;;;;;;;;7326589;19;162492;-15
2022/08/23 03:39:08;;;;;;;1.60;1.00;;;;;;;;;;7328056;19;154274;-15
2022/08/23 03:41:42;;;;;;;1.10;0.80;;;;;;;;;;7328063;19;154098;-16
2022/08/23 03:44:15;;;;;;;0.70;0.70;;;;;;;;;;7326643;19;161946;-15
2022/08/23 03:46:47;;;;;;;0.70;0.70;;;;;;;;;;7326371;19;162502;-15
2022/08/23 03:49:18;;;;;;;0.85;0.70;;;;;;;;;;7326763;19;154017;-16
2022/08/23 03:51:54;;;;;;;0.65;0.65;;;;;;;;;;7324668;19;153564;-15
2022/08/23 03:54:26;;;;;;;1.23;1.00;;;;;;;;;;7324159;19;162105;-15
2022/08/23 03:57:02;;;;;;;0.95;0.75;;;;;;;;;;7326065;19;162627;-15
2022/08/23 03:59:38;;;;;;;2.00;0.93;;;;;;;;;;7334430;19;154165;-15
2022/08/23 04:02:12;;;;;;;2.28;0.85;;;;;;;;;;7333340;19;153876;-15
2022/08/23 04:04:44;;;;;;;0.80;0.80;;;;;;;;;;7334167;19;162315;-15
2022/08/23 04:07:38;;;;;;;1.95;0.93;;;;;;;;;;7333699;19;162554;-15
2022/08/23 04:10:13;;;;;;;1.15;0.70;;;;;;;;;;7336075;19;154055;-15
2022/08/23 04:12:49;;;;;;;2.33;1.02;;;;;;;;;;7330542;19;153496;-15
2022/08/23 04:15:21;;;;;;;0.73;0.60;;;;;;;;;;7332453;19;161873;-15
2022/08/23 04:17:52;;;;;;;1.98;0.80;;;;;;;;;;7333618;19;162500;-15
2022/08/23 04:20:24;;;;;;;;;;;;;;;;;;7333396;19;154323;-15
2022/08/23 04:23:00;;;;;;;1.27;0.82;;;;;;;;;;7332776;19;153143;-15
2022/08/23 04:25:35;;;;;;;0.80;0.80;;;;;;;;;;7332203;19;161872;-15
2022/08/23 04:28:10;;;;;;;0.73;0.60;;;;;;;;;;7332229;19;162869;-15
2022/08/23 04:30:44;;;;;;;1.20;0.70;;;;;;;;;;7332403;19;154262;-15
2022/08/23 04:33:16;;;;;;;2.05;0.70;;;;;;;;;;7332270;19;153832;-19
2022/08/23 04:35:51;;;;;;;0.65;0.57;;;;;;;;;;7331648;19;161885;-15
2022/08/23 04:38:23;;;;;;;;;;;;;;;;;;7332263;19;162585;-14
2022/08/23 04:43:49;;;;;;;1.15;0.77;;;;;;;;;;7332061;19;153535;-27
2022/08/23 04:46:20;;;;;;;2.13;1.02;;;;;;;;;;7332033;19;161850;-15
2022/08/23 04:48:52;;;;;;;0.77;0.77;;;;;;;;;;7331648;19;162483;-15
2022/08/23 04:51:24;;;;;;;0.60;0.60;;;;;;;;;;7331199;19;154133;-15
2022/08/23 04:53:55;;;;;;;0.93;0.85;;;;;;;;;;7330248;19;153565;-15
2022/08/23 04:56:42;;;;;;;1.65;0.88;;;;;;;;;;7332268;19;161845;-15
2022/08/23 04:59:16;;;;;;;1.27;0.77;;;;;;;;;;7331360;19;162603;-16
2022/08/23 05:01:48;;;;;;;0.70;0.70;;;;;;;;;;7331548;19;154445;-15
2022/08/23 05:04:20;;;;;;;0.70;0.70;;;;;;;;;;7331371;19;153540;-15
2022/08/23 05:06:51;;;;;;;1.00;0.90;;;;;;;;;;7331168;19;161825;-14
2022/08/23 05:09:25;;;;;;;0.70;0.70;;;;;;;;;;7330337;19;162353;-15
2022/08/23 05:11:57;;;;;;;0.57;0.57;;;;;;;;;;7330326;19;154051;-14
2022/08/23 05:14:31;;;;;;;0.52;0.52;;;;;;;;;;7330973;19;153558;-15
2022/08/23 05:17:02;;;;;;;0.73;0.73;;;;;;;;;;7333790;19;161897;-15
2022/08/23 05:19:34;;;;;;;1.27;0.90;;;;;;;;;;7330643;19;162623;-15
2022/08/23 05:22:06;;;;;;;0.80;0.80;;;;;;;;;;7332111;19;154099;-15
2022/08/23 05:25:00;;;;;;;1.25;0.60;;;;;;;;;;7331562;19;153688;-15
2022/08/23 05:27:31;;;;;;;1.23;0.60;;;;;;;;;;7330223;19;162067;-15
2022/08/23 05:30:06;;;;;;;1.25;0.60;;;;;;;;;;7331415;19;162336;-15
2022/08/23 05:32:37;;;;;;;1.55;0.90;;;;;;;;;;7328971;19;154176;-15
2022/08/23 05:35:11;;;;;;;0.57;0.57;;;;;;;;;;7330432;19;153577;-15
2022/08/23 05:37:48;;;;;;;0.70;0.68;;;;;;;;;;7332902;19;162070;-15
2022/08/23 05:40:20;;;;;;;0.68;0.63;;;;;;;;;;7333476;19;162455;-15
2022/08/23 05:43:03;;;;;;;2.05;0.57;;;;;;;;;;7330418;19;154069;-16
2022/08/23 05:45:37;;;;;;;2.15;0.88;;;;;;;;;;7330211;19;153780;-15
2022/08/23 05:48:08;;;;;;;0.88;0.63;;;;;;;;;;7329813;19;161668;-16
2022/08/23 05:50:47;;;;;;;0.95;0.60;;;;;;;;;;7329753;19;162472;-15
2022/08/23 05:53:18;;;;;;;0.68;0.68;;;;;;;;;;7327838;19;154055;-15
2022/08/23 05:55:50;;;;;;;0.70;0.70;;;;;;;;;;7330003;19;153634;-15
2022/08/23 05:58:27;;;;;;;1.38;0.70;;;;;;;;;;7329615;19;161883;-15
2022/08/23 06:01:01;;;;;;;1.63;0.60;;;;;;;;;;7330495;19;162642;-15
2022/08/23 06:03:33;;;;;;;0.85;0.80;;;;;;;;;;7329756;19;154287;-15
2022/08/23 06:06:05;;;;;;;0.60;0.60;;;;;;;;;;7329614;19;153504;-16
2022/08/23 06:08:38;;;;;;;;;;;;;;;;;;7329935;19;162103;-14
2022/08/23 06:11:11;;;;;;;;;;;;;;;;;;7329808;19;162576;-14
2022/08/23 06:13:47;;;;;;;0.85;0.63;;;;;;;;;;7327292;19;154560;-15
2022/08/23 06:16:23;;;;;;;1.00;0.85;;;;;;;;;;7330461;19;153537;-14
2022/08/23 06:18:56;;;;;;;0.70;0.70;;;;;;;;;;7328739;19;161788;-14
2022/08/23 06:21:48;;;;;;;2.13;0.80;;;;;;;;;;7329665;19;162462;-15
2022/08/23 06:24:32;;;;;;;0.70;0.70;;;;;;;;;;7329258;19;154081;-14
2022/08/23 06:27:13;;;;;;;0.80;0.68;;;;;;;;;;7328905;19;153743;-15
2022/08/23 06:29:46;;;;;;;1.23;0.75;;;;;;;;;;7329907;19;161867;-14
2022/08/23 06:32:46;;;;;;;1.90;0.93;;;;;;;;;;7327396;19;162590;-14
2022/08/23 06:35:36;;;;;;;0.70;0.70;;;;;;;;;;7329265;19;154185;-14
2022/08/23 06:38:15;;;;;;;0.80;0.80;;;;;;;;;;7328837;19;153551;-15
2022/08/23 06:41:09;;;;;;;0.77;0.77;;;;;;;;;;7329264;19;161796;-15
2022/08/23 06:44:04;;;;;;;0.80;0.70;;;;;;;;;;7326940;19;162539;-15
2022/08/23 06:46:50;;;;;;;1.67;0.98;;;;;;;;;;7328511;19;154116;-17
2022/08/23 06:49:26;;;;;;;2.53;1.00;;;;;;;;;;7328448;19;154140;-14
2022/08/23 06:52:03;;;;;;;0.68;0.60;;;;;;;;;;7327842;19;161951;-15
2022/08/23 06:55:03;;;;;;;;;;;;;;;;;;7325506;19;162457;-15
2022/08/23 06:57:57;;;;;;;2.10;0.82;;;;;;;;;;7328232;19;154141;-15
2022/08/23 07:00:41;;;;;;;0.93;0.80;;;;;;;;;;7328247;19;153722;-14
2022/08/23 07:03:18;;;;;;;0.80;0.80;;;;;;;;;;7327471;19;162006;-14
2022/08/23 07:06:13;;;;;;;2.90;0.80;;;;;;;;;;7328475;19;163807;-15
2022/08/23 07:08:45;;;;;;;2.45;0.70;;;;;;;;;;7329210;19;154039;-14
2022/08/23 07:11:16;;;;;;;0.70;0.70;;;;;;;;;;7327750;19;153553;-14
2022/08/23 07:13:48;;;;;;;2.40;0.88;;;;;;;;;;7325844;19;161948;-14
2022/08/23 07:16:19;;;;;;;1.45;0.82;;;;;;;;;;7327239;19;162532;-14
2022/08/23 07:18:51;;;;;;;1.45;0.75;;;;;;;;;;7327447;19;154173;-15
2022/08/23 07:21:25;;;;;;;1.30;1.00;;;;;;;;;;7328415;19;153566;-14
2022/08/23 07:23:57;;;;;;;1.05;0.73;;;;;;;;;;7327067;19;161961;-15
2022/08/23 07:26:28;;;;;;;1.35;0.80;;;;;;;;;;7328125;19;162379;-14
2022/08/23 07:29:01;;;;;;;4.47;1.10;;;;;;;;;;7328393;19;154465;-14
2022/08/23 07:31:34;;;;;;;4.30;0.82;;;;;;;;;;7328164;19;153524;-14
2022/08/23 07:34:10;;;;;;;4.28;1.00;;;;;;;;;;7330570;19;162001;-17
2022/08/23 07:36:48;;;;;;;4.32;1.08;;;;;;;;;;7333064;19;162504;-14
2022/08/23 07:39:20;;;;;;;2.08;0.90;;;;;;;;;;7334696;19;154028;-14
2022/08/23 07:41:52;;;;;;;2.83;0.90;;;;;;;;;;7333858;19;153680;-15
2022/08/23 07:44:26;;;;;;;6.40;1.13;;;;;;;;;;7334032;19;162012;-15
2022/08/23 07:47:03;;;;;;;2.75;0.98;;;;;;;;;;7333411;19;162498;-14
2022/08/23 07:49:35;;;;;;;3.85;0.93;;;;;;;;;;7333938;19;154133;-14
2022/08/23 07:52:12;;;;;;;4.38;1.05;;;;;;;;;;7333964;19;153522;-15
2022/08/23 07:54:43;;;;;;;2.35;0.95;;;;;;;;;;7331083;19;162006;-15
2022/08/23 07:57:33;;;;;;;1.23;0.77;;;;;;;;;;7333323;19;162477;-15
2022/08/23 08:00:20;;;;;;;3.38;1.13;;;;;;;;;;7333747;19;154054;-15
2022/08/23 08:03:01;;;;;;;5.75;0.90;;;;;;;;;;7333420;19;153563;-14
2022/08/23 08:05:46;;;;;;;2.97;1.15;;;;;;;;;;7332965;19;161859;-14
2022/08/23 08:08:19;;;;;;;1.35;0.68;;;;;;;;;;7334059;19;162618;-15
2022/08/23 08:10:56;;;;;;;4.13;1.30;;;;;;;;;;7337859;19;154093;-15
2022/08/23 08:13:28;;;;;;;3.33;1.25;;;;;;;;;;7333119;19;153491;-15
2022/08/23 08:15:59;;;;;;;3.28;0.90;;;;;;;;;;7332822;19;161798;-15
2022/08/23 08:18:33;;;;;;;4.95;1.17;;;;;;;;;;7332381;19;162366;-14
2022/08/23 08:21:24;;;;;;;2.50;1.00;;;;;;;;;;7333871;19;154069;-14
2022/08/23 08:24:14;;;;;;;3.15;1.17;;;;;;;;;;7332756;19;153639;-14
2022/08/23 08:27:00;;;;;;;5.25;1.10;;;;;;;;;;7332022;19;161973;-15
2022/08/23 08:29:31;;;;;;;3.88;1.00;;;;;;;;;;7331891;19;162666;-14
2022/08/23 08:32:08;;;;;;;4.18;1.10;;;;;;;;;;7332205;19;154070;-14
2022/08/23 08:34:40;;;;;;;4.38;1.00;;;;;;;;;;7330726;19;153580;-15
2022/08/23 08:37:13;;;;;;;1.63;1.00;;;;;;;;;;7331777;19;161916;-14
2022/08/23 08:39:47;;;;;;;2.05;0.93;;;;;;;;;;7333980;19;162624;-14
2022/08/23 08:42:36;;;;;;;3.28;1.05;;;;;;;;;;7331928;19;154131;-14
2022/08/23 08:45:12;;;;;;;3.67;0.80;;;;;;;;;;7330375;19;153553;-14
2022/08/23 08:47:50;;;;;;;4.22;1.10;;;;;;;;;;7331670;19;161848;-14
2022/08/23 08:50:27;;;;;;;4.97;0.88;;;;;;;;;;7331403;19;162619;-14
2022/08/23 08:53:10;;;;;;;6.28;1.05;;;;;;;;;;7330743;19;154509;-14
2022/08/23 08:56:08;;;;;;;3.25;1.00;;;;;;;;;;7330212;19;154190;-14
2022/08/23 08:58:47;;;;;;;4.25;1.00;;;;;;;;;;7331126;19;162236;-14
2022/08/23 09:01:19;;;;;;;6.00;1.13;;;;;;;;;;7330858;19;162427;-14
2022/08/23 09:03:51;;;;;;;4.07;1.05;;;;;;;;;;7331275;19;154123;-15
2022/08/23 09:06:26;;;;;;;3.90;1.30;;;;;;;;;;7331314;19;153589;-14
2022/08/23 09:09:10;;;;;;;2.22;0.93;;;;;;;;;;7331372;19;161988;-14
2022/08/23 09:11:57;;;;;;;4.65;1.10;;;;;;;;;;7330677;19;162474;-14
2022/08/23 09:14:47;;;;;;;5.13;0.80;;;;;;;;;;7330351;19;154150;-14
2022/08/23 09:17:26;;;;;;;2.90;0.93;;;;;;;;;;7331025;19;153522;-14
2022/08/23 09:20:03;;;;;;;2.10;0.80;;;;;;;;;;7331736;19;161831;-15
2022/08/23 09:22:42;;;;;;;1.60;0.90;;;;;;;;;;7331290;19;162372;-14
2022/08/23 09:25:23;;;;;;;3.38;0.93;;;;;;;;;;7330564;19;153870;-14
2022/08/23 09:28:05;;;;;;;3.65;1.13;;;;;;;;;;7330706;19;153528;-14
2022/08/23 09:30:55;;;;;;;5.35;1.20;;;;;;;;;;7330326;19;161868;-15
2022/08/23 09:33:39;;;;;;;1.88;1.10;;;;;;;;;;7330146;19;162426;-14
2022/08/23 09:36:25;;;;;;;3.90;1.10;;;;;;;;;;7327986;19;154055;-14
2022/08/23 09:39:03;;;;;;;3.78;1.23;;;;;;;;;;7331097;19;153925;-15
2022/08/23 09:41:38;;;;;;;2.78;1.02;;;;;;;;;;7330049;19;161910;-15
2022/08/23 09:44:31;;;;;;;8.45;1.45;;;;;;;;;;7331040;19;162341;-15
2022/08/23 09:47:13;;;;;;;4.30;1.17;;;;;;;;;;7330201;19;154044;-15
2022/08/23 09:49:50;;;;;;;2.95;0.95;;;;;;;;;;7331214;19;153479;-16
2022/08/23 09:52:27;;;;;;;4.20;0.80;;;;;;;;;;7333278;19;161886;-15
2022/08/23 09:55:06;;;;;;;4.10;1.20;;;;;;;;;;7327603;19;162837;-15
2022/08/23 09:57:48;;;;;;;3.67;1.20;;;;;;;;;;7330066;19;154202;-16
2022/08/23 10:00:28;;;;;;;3.70;1.20;;;;;;;;;;7329852;19;153671;-15
2022/08/23 10:03:26;;;;;;;2.30;1.02;;;;;;;;;;7329529;19;161793;-15
2022/08/23 10:06:29;;;;;;;1.73;0.82;;;;;;;;;;7329221;19;162571;-15
2022/08/23 10:09:04;;;;;;;3.45;1.20;;;;;;;;;;7330304;19;154345;-15
2022/08/23 10:11:42;;;;;;;4.22;1.13;;;;;;;;;;7329297;19;153736;-15
2022/08/23 10:14:16;;;;;;;3.63;1.17;;;;;;;;;;7328764;19;161997;-16
2022/08/23 10:17:02;;;;;;;1.90;1.10;;;;;;;;;;7326265;19;162502;-16
2022/08/23 10:19:44;;;;;;;2.45;1.08;;;;;;;;;;7329301;19;154346;-15
2022/08/23 10:22:22;;;;;;;2.63;1.30;;;;;;;;;;7329098;19;153603;-15
2022/08/23 10:25:17;;;;;;;3.20;1.40;;;;;;;;;;7329663;19;161882;-15
2022/08/23 10:30:47;;;;;;;3.22;1.20;;;;;;;;;;7328847;19;154065;-15
2022/08/23 10:33:28;;;;;;;2.70;1.23;;;;;;;;;;7328886;19;153615;-15
2022/08/23 10:36:08;;;;;;;4.28;1.20;;;;;;;;;;7327823;19;161885;-16
2022/08/23 10:38:46;;;;;;;3.63;1.52;;;;;;;;;;7328442;19;162485;-16
2022/08/23 10:41:30;;;;;;;3.40;1.25;;;;;;;;;;7328704;19;154096;-15
2022/08/23 10:44:16;;;;;;;3.40;1.30;;;;;;;;;;7328602;19;153870;-16
2022/08/23 10:47:04;;;;;;;1.88;0.82;;;;;;;;;;7327946;19;162653;-16
2022/08/23 10:49:41;;;;;;;5.13;1.55;;;;;;;;;;7326953;19;162605;-15
2022/08/23 10:52:20;;;;;;;1.83;1.20;;;;;;;;;;7328199;19;154385;-15
2022/08/23 10:55:05;;;;;;;5.93;1.45;;;;;;;;;;7325351;19;153935;-15
2022/08/23 10:57:43;;;;;;;3.33;1.67;;;;;;;;;;7327788;19;161944;-16
2022/08/23 11:00:19;;;;;;;3.45;1.65;;;;;;;;;;7327548;19;162674;-16
2022/08/23 11:02:57;;;;;;;3.22;1.48;;;;;;;;;;7328188;19;154430;-16
2022/08/23 11:05:37;;;;;;;1.60;1.50;;;;;;;;;;7328068;19;153696;-15
2022/08/23 11:08:35;;;;;;;1.65;1.20;;;;;;;;;;7331240;19;161986;-16
2022/08/23 11:11:39;;;;;;;2.42;1.58;;;;;;;;;;7333860;19;162421;-15
2022/08/23 11:14:13;;;;;;;3.10;1.70;;;;;;;;;;7334617;19;154295;-15
2022/08/23 11:16:48;;;;;;;1.65;1.40;;;;;;;;;;7332974;19;153664;-15
2022/08/23 11:19:49;;;;;;;3.22;1.40;;;;;;;;;;7338406;19;161864;-15
2022/08/23 11:22:26;;;;;;;3.17;1.50;;;;;;;;;;7333500;19;162405;-16
2022/08/23 11:25:02;;;;;;;3.17;1.55;;;;;;;;;;7333921;19;154209;-15
2022/08/23 11:27:42;;;;;;;4.07;1.30;;;;;;;;;;7334225;19;153770;-15
2022/08/23 11:30:45;;;;;;;2.58;1.27;;;;;;;;;;7333636;19;161915;-16
2022/08/23 11:33:24;;;;;;;1.48;1.38;;;;;;;;;;7333469;19;162692;-15
2022/08/23 11:36:20;;;;;;;2.55;1.50;;;;;;;;;;7333262;19;154335;-16
2022/08/23 11:39:10;;;;;;;5.45;1.60;;;;;;;;;;7334285;19;153692;-15
2022/08/23 11:42:03;;;;;;;2.20;1.53;;;;;;;;;;7333421;19;162162;-15
2022/08/23 11:44:41;;;;;;;6.35;1.73;;;;;;;;;;7333221;19;162789;-16
2022/08/23 11:47:16;;;;;;;2.63;1.40;;;;;;;;;;7333800;19;154064;-15
2022/08/23 11:50:16;;;;;;;3.33;1.60;;;;;;;;;;7333550;19;153806;-16
2022/08/23 11:53:08;;;;;;;2.50;1.40;;;;;;;;;;7333867;19;161828;-15
2022/08/23 11:56:11;;;;;;;2.80;1.55;;;;;;;;;;7334154;19;162430;-16
2022/08/23 11:59:08;;;;;;;3.45;1.50;;;;;;;;;;7335658;19;154342;-16
2022/08/23 12:01:42;;;;;;;2.92;1.50;;;;;;;;;;7331899;19;153603;-15
2022/08/23 12:04:30;;;;;;;2.30;1.23;;;;;;;;;;7333704;19;161868;-16
2022/08/23 12:07:10;;;;;;;1.63;1.30;;;;;;;;;;7333933;19;162379;-16
2022/08/23 12:09:58;;;;;;;1.42;1.20;;;;;;;;;;7336273;19;154227;-16
2022/08/23 12:12:37;;;;;;;3.63;1.40;;;;;;;;;;7334230;19;153559;-20
2022/08/23 12:15:12;;;;;;;1.48;1.40;;;;;;;;;;7333683;19;162180;-21
2022/08/23 12:18:07;;;;;;;3.15;1.48;;;;;;;;;;7331554;19;162326;-15
2022/08/23 12:20:40;;;;;;;4.38;1.45;;;;;;;;;;7332607;19;154454;-15
2022/08/23 12:23:18;;;;;;;2.00;1.40;;;;;;;;;;7333523;19;153605;-16
2022/08/23 12:26:06;;;;;;;4.57;1.45;;;;;;;;;;7332484;19;161824;-15
2022/08/23 12:28:47;;;;;;;2.80;1.52;;;;;;;;;;7333210;19;162534;-14
2022/08/23 12:31:24;;;;;;;5.63;1.70;;;;;;;;;;7333284;19;154172;-15
2022/08/23 12:34:23;;;;;;;4.03;1.42;;;;;;;;;;7333211;19;153573;-15
2022/08/23 12:37:11;;;;;;;5.03;1.50;;;;;;;;;;7331131;19;161905;-16
2022/08/23 12:39:57;;;;;;;4.30;1.50;;;;;;;;;;7335205;19;162432;-15
2022/08/23 12:42:41;;;;;;;2.33;1.13;;;;;;;;;;7333335;19;154069;-16
2022/08/23 12:45:18;;;;;;;2.08;1.10;;;;;;;;;;7332847;19;153549;-16
2022/08/23 12:47:58;;;;;;;2.30;1.17;;;;;;;;;;7332572;19;162259;-16
2022/08/23 12:50:38;;;;;;;3.45;1.50;;;;;;;;;;7331589;19;162393;-17
2022/08/23 12:53:12;;;;;;;7.72;1.50;;;;;;;;;;7332083;19;154014;-17
2022/08/23 12:55:47;;;;;;;5.88;1.65;;;;;;;;;;7332806;19;153580;-14
2022/08/23 12:58:28;;;;;;;5.03;1.30;;;;;;;;;;7330325;19;161779;-17
2022/08/23 13:01:07;;;;;;;2.78;1.48;;;;;;;;;;7332220;19;162326;-14
2022/08/23 13:03:43;;;;;;;7.45;1.38;;;;;;;;;;7332395;19;154022;-14
2022/08/23 13:06:17;;;;;;;5.30;1.50;;;;;;;;;;7332164;19;153561;-17
2022/08/23 13:08:51;;;;;;;2.90;1.17;;;;;;;;;;7332260;19;161935;-14
2022/08/23 13:11:27;;;;;;;3.83;1.30;;;;;;;;;;7330527;19;162727;-14
2022/08/23 13:13:59;;;;;;;2.60;1.10;;;;;;;;;;7332332;19;154097;-14
2022/08/23 13:16:44;;;;;;;3.65;1.15;;;;;;;;;;7336791;19;153673;-14
2022/08/23 13:19:21;;;;;;;5.32;1.63;;;;;;;;;;7331595;19;162113;-14
2022/08/23 13:22:13;;;;;;;5.15;1.50;;;;;;;;;;7331652;19;162531;-14
2022/08/23 13:25:04;;;;;;;4.53;1.20;;;;;;;;;;7331925;19;154076;-14
2022/08/23 13:28:01;;;;;;;3.58;1.40;;;;;;;;;;7331604;19;153214;-13
2022/08/23 13:30:35;;;;;;;12.60;1.42;;;;;;;;;;7329784;19;161806;-16
2022/08/23 13:33:24;;;;;;;5.60;1.70;;;;;;;;;;7329977;19;162508;-14
2022/08/23 13:36:10;;;;;;;3.50;1.40;;;;;;;;;;7330257;19;154068;-15
2022/08/23 13:38:48;;;;;;;2.10;1.20;;;;;;;;;;7329053;19;153536;-14
2022/08/23 13:41:33;;;;;;;1.67;1.20;;;;;;;;;;7331247;19;161802;-14
2022/08/23 13:44:08;;;;;;;3.63;1.50;;;;;;;;;;7330969;19;162338;-15
2022/08/23 13:46:47;;;;;;;2.63;1.30;;;;;;;;;;7331228;19;153990;-14
2022/08/23 13:49:26;;;;;;;3.17;1.20;;;;;;;;;;7329933;19;154125;-15
2022/08/23 13:52:10;;;;;;;3.45;1.20;;;;;;;;;;7329828;19;161838;-15
2022/08/23 13:55:02;;;;;;;4.07;1.15;;;;;;;;;;7326537;19;162444;-14
2022/08/23 13:57:39;;;;;;;3.85;1.10;;;;;;;;;;7330379;19;154545;-18
2022/08/23 14:00:12;;;;;;;2.83;1.30;;;;;;;;;;7334406;19;153493;-14
2022/08/23 14:02:47;;;;;;;7.95;1.73;;;;;;;;;;7330566;19;161586;-14
2022/08/23 14:05:23;;;;;;;3.17;1.30;;;;;;;;;;7330475;19;162616;-15
2022/08/23 14:07:55;;;;;;;3.70;1.15;;;;;;;;;;7330890;19;154324;-15
2022/08/23 14:10:26;;;;;;;5.20;1.35;;;;;;;;;;7334102;19;153492;-15
2022/08/23 14:12:59;;;;;;;4.25;1.40;;;;;;;;;;7330310;19;161839;-15
2022/08/23 14:15:30;;;;;;;2.78;1.13;;;;;;;;;;7328965;19;162445;-15
2022/08/23 14:18:22;;;;;;;3.30;1.15;;;;;;;;;;7328496;19;154323;-15
2022/08/23 14:21:05;;;;;;;3.65;1.35;;;;;;;;;;7330472;19;153657;-15
2022/08/23 14:23:40;;;;;;;2.17;1.13;;;;;;;;;;7328596;19;162016;-15
2022/08/23 14:26:16;;;;;;;4.25;1.20;;;;;;;;;;7329600;19;162623;-15
2022/08/23 14:28:50;;;;;;;4.55;1.30;;;;;;;;;;7330067;19;154065;-15
2022/08/23 14:31:23;;;;;;;3.70;1.13;;;;;;;;;;7329993;19;153718;-15
2022/08/23 14:33:54;;;;;;;5.18;1.65;;;;;;;;;;7328409;19;162214;-15
2022/08/23 14:36:30;;;;;;;5.70;1.38;;;;;;;;;;7329503;19;162378;-15
2022/08/23 14:39:01;;;;;;;4.25;1.20;;;;;;;;;;7328638;19;154234;-15
2022/08/23 14:41:35;;;;;;;2.60;1.27;;;;;;;;;;7329962;19;153513;-15
2022/08/23 14:44:06;;;;;;;6.57;1.30;;;;;;;;;;7329491;19;162052;-15
2022/08/23 14:46:37;;;;;;;1.98;0.82;;;;;;;;;;7329129;19;162393;-15
2022/08/23 14:49:09;;;;;;;2.15;1.30;;;;;;;;;;7329426;19;154094;-15
2022/08/23 14:51:46;;;;;;;2.97;1.33;;;;;;;;;;7329562;19;155346;-15
2022/08/23 14:54:20;;;;;;;2.28;1.00;;;;;;;;;;7327040;19;161842;-15
2022/08/23 14:56:52;;;;;;;2.28;1.35;;;;;;;;;;7328865;19;162623;-15
2022/08/23 14:59:23;;;;;;;3.35;1.20;;;;;;;;;;7327089;19;154050;-15
2022/08/23 15:01:56;;;;;;;3.78;1.40;;;;;;;;;;7329002;19;153690;-15
2022/08/23 15:04:28;;;;;;;1.92;1.30;;;;;;;;;;7328705;19;161823;-15
2022/08/23 15:07:02;;;;;;;3.40;1.27;;;;;;;;;;7327361;19;162383;-14
2022/08/23 15:09:49;;;;;;;5.90;1.35;;;;;;;;;;7330241;19;154176;-16
2022/08/23 15:12:22;;;;;;;11.37;1.20;;;;;;;;;;7328386;19;155227;-15
2022/08/23 15:15:16;;;;;;;5.93;1.50;;;;;;;;;;7328058;19;161940;-15
2022/08/23 15:17:54;;;;;;;3.28;1.55;;;;;;;;;;7328266;19;162673;-15
2022/08/23 15:20:28;;;;;;;2.97;1.20;;;;;;;;;;7328623;19;154011;-15
2022/08/23 15:23:02;;;;;;;1.73;1.23;;;;;;;;;;7327322;19;153714;-15
2022/08/23 15:25:37;;;;;;;1.92;1.27;;;;;;;;;;7328064;19;161801;-15
2022/08/23 15:28:13;;;;;;;2.00;1.10;;;;;;;;;;7328118;19;162403;-15
2022/08/23 15:30:47;;;;;;;3.20;1.40;;;;;;;;;;7328355;19;154075;-15
2022/08/23 15:33:18;;;;;;;8.57;1.58;;;;;;;;;;7327972;19;153697;-15
2022/08/23 15:35:53;;;;;;;1.60;1.00;;;;;;;;;;7327504;19;161921;-14
2022/08/23 15:38:27;;;;;;;5.00;1.20;;;;;;;;;;7327074;19;162519;-15
2022/08/23 15:40:59;;;;;;;5.03;1.33;;;;;;;;;;7331233;19;154231;-15
2022/08/23 15:43:32;;;;;;;2.50;1.40;;;;;;;;;;7327442;19;153667;-15
2022/08/23 15:46:06;;;;;;;3.45;1.58;;;;;;;;;;7327317;19;162253;-15